createdAt,value
2019-03-01T00:04:03.899Z,99914.27
2019-03-01T00:09:40.281Z,99916.87
2019-03-01T00:15:04.876Z,99916.87
2019-03-01T00:20:43.978Z,99915.31
2019-03-01T00:26:13.225Z,99907.69
2019-03-01T00:32:16.627Z,99901.39
2019-03-01T00:38:17.365Z,99901.39
2019-03-01T00:44:13.555Z,99897.60
2019-03-01T00:49:17.429Z,99887.98
2019-03-01T00:54:21.231Z,99887.98
2019-03-01T00:59:25.097Z,99893.44
2019-03-01T01:04:28.911Z,99893.44
2019-03-01T01:09:33.949Z,99874.70
2019-03-01T01:14:37.740Z,99860.09
2019-03-01T01:19:41.525Z,99865.65
2019-03-01T01:24:45.312Z,99861.77
2019-03-01T01:29:49.078Z,99856.78
2019-03-01T01:34:52.850Z,99843.84
2019-03-01T01:39:56.681Z,99844.12
2019-03-01T01:45:00.447Z,99840.70
2019-03-01T01:50:05.037Z,99833.27
2019-03-01T01:55:08.817Z,99831.33
2019-03-01T02:00:12.775Z,99831.25
2019-03-01T02:05:16.689Z,99819.91
2019-03-01T02:10:20.575Z,99823.72
2019-03-01T02:15:24.373Z,99823.72
2019-03-01T02:20:28.228Z,99805.56
2019-03-01T02:25:32.226Z,99792.88
2019-03-01T02:30:36.102Z,99793.62
2019-03-01T02:35:39.871Z,99782.41
2019-03-01T02:40:43.640Z,99782.41
2019-03-01T02:45:47.492Z,99780.86
2019-03-01T02:50:51.267Z,99781.43
2019-03-01T02:55:55.046Z,99781.70
2019-03-01T03:00:58.804Z,99779.66
2019-03-01T03:06:20.505Z,99772.95
2019-03-01T03:11:24.272Z,99773.30
2019-03-01T03:16:28.723Z,99780.75
2019-03-01T03:21:32.482Z,99779.90
2019-03-01T03:26:36.359Z,99779.90
2019-03-01T03:31:40.135Z,99777.71
2019-03-01T03:36:43.896Z,99777.71
2019-03-01T03:41:47.681Z,99767.03
2019-03-01T03:46:51.581Z,99762.52
2019-03-01T03:51:55.350Z,99762.52
2019-03-01T03:56:59.159Z,99759.48
2019-03-01T04:02:03.061Z,99758.63
2019-03-01T04:07:06.892Z,99758.14
2019-03-01T04:12:10.655Z,99754.00
2019-03-01T04:17:14.559Z,99761.06
2019-03-01T04:22:18.363Z,99759.51
2019-03-01T04:27:22.122Z,99759.51
2019-03-01T04:32:25.954Z,99742.56
2019-03-01T04:37:30.273Z,99740.51
2019-03-01T04:42:34.066Z,99740.81
2019-03-01T04:47:37.805Z,99740.81
2019-03-01T04:52:41.668Z,99733.69
2019-03-01T04:57:45.423Z,99734.24
2019-03-01T05:02:49.165Z,99736.71
2019-03-01T05:07:52.905Z,99732.80
2019-03-01T05:12:57.797Z,99727.07
2019-03-01T05:18:01.550Z,99727.07
2019-03-01T05:23:05.303Z,99722.34
2019-03-01T05:28:09.048Z,99722.34
2019-03-01T05:33:12.811Z,99723.33
2019-03-01T05:38:21.819Z,99726.64
2019-03-01T05:43:22.048Z,99732.59
2019-03-01T05:48:25.787Z,99727.73
2019-03-01T05:53:29.553Z,99727.73
2019-03-01T05:58:38.493Z,99724.83
2019-03-01T06:04:15.564Z,99725.32
2019-03-01T06:09:42.147Z,99718.89
2019-03-01T06:15:14.395Z,99718.89
2019-03-01T06:20:41.174Z,99718.39
2019-03-01T06:26:10.574Z,99721.58
2019-03-01T06:31:59.907Z,99701.34
2019-03-01T06:37:20.609Z,99702.33
2019-03-01T06:43:11.432Z,99703.81
2019-03-01T06:48:24.904Z,99703.81
2019-03-01T06:53:28.672Z,99706.11
2019-03-01T06:58:40.927Z,99702.58
2019-03-01T07:03:47.199Z,99701.37
2019-03-01T07:08:50.976Z,99709.44
2019-03-01T07:13:54.740Z,99715.56
2019-03-01T07:18:58.521Z,99715.56
2019-03-01T07:24:02.280Z,99717.14
2019-03-01T07:29:06.447Z,99717.14
2019-03-01T07:34:10.202Z,99716.30
2019-03-01T07:39:13.964Z,99723.49
2019-03-01T07:44:17.809Z,99730.83
2019-03-01T07:49:21.555Z,99727.16
2019-03-01T07:54:25.371Z,99753.50
2019-03-01T07:59:33.459Z,99765.89
2019-03-01T08:04:34.915Z,99759.13
2019-03-01T08:09:41.283Z,99759.13
2019-03-01T08:14:44.157Z,99737.47
2019-03-01T08:19:47.929Z,99734.48
2019-03-01T08:24:51.683Z,99731.22
2019-03-01T08:29:55.442Z,99732.68
2019-03-01T08:34:59.213Z,99730.47
2019-03-01T08:40:03.144Z,99736.95
2019-03-01T08:45:07.580Z,99736.95
2019-03-01T08:50:13.410Z,99731.95
2019-03-01T08:55:18.160Z,99728.41
2019-03-01T09:00:26.977Z,99728.41
2019-03-01T09:05:29.727Z,99728.47
2019-03-01T09:10:33.667Z,99725.19
2019-03-01T09:15:37.619Z,99725.19
2019-03-01T09:20:41.365Z,99730.35
2019-03-01T09:25:45.364Z,99722.42
2019-03-01T09:30:49.150Z,99722.42
2019-03-01T09:35:57.323Z,99726.09
2019-03-01T09:41:04.097Z,99739.03
2019-03-01T09:46:06.548Z,99739.03
2019-03-01T09:51:11.404Z,99731.22
2019-03-01T09:56:15.338Z,99730.98
2019-03-01T10:01:19.947Z,99728.42
2019-03-01T10:06:23.702Z,99733.80
2019-03-01T10:11:27.464Z,99730.65
2019-03-01T10:16:31.223Z,99723.55
2019-03-01T10:21:34.966Z,99723.55
2019-03-01T10:26:38.735Z,99725.39
2019-03-01T10:31:42.490Z,99721.13
2019-03-01T10:36:46.241Z,99721.72
2019-03-01T10:41:49.980Z,99724.66
2019-03-01T10:46:53.725Z,99721.77
2019-03-01T10:51:57.493Z,99730.67
2019-03-01T10:57:01.336Z,99730.67
2019-03-01T11:02:05.164Z,99723.85
2019-03-01T11:07:08.932Z,99723.85
2019-03-01T11:12:12.685Z,99727.52
2019-03-01T11:17:16.438Z,99718.76
2019-03-01T11:22:20.243Z,99718.27
2019-03-01T11:27:24.089Z,99708.21
2019-03-01T11:32:27.867Z,99708.21
2019-03-01T11:37:31.625Z,99717.60
2019-03-01T11:42:35.380Z,99717.66
2019-03-01T11:47:39.851Z,99714.26
2019-03-01T11:52:43.640Z,99719.53
2019-03-01T11:57:47.392Z,99718.33
2019-03-01T12:02:51.516Z,99728.60
2019-03-01T12:07:55.326Z,99741.17
2019-03-01T12:12:59.106Z,99741.17
2019-03-01T12:18:03.112Z,99746.95
2019-03-01T12:23:06.854Z,99743.30
2019-03-01T12:28:10.616Z,99744.92
2019-03-01T12:33:14.400Z,99744.92
2019-03-01T12:38:18.150Z,99758.53
2019-03-01T12:43:21.909Z,99754.54
2019-03-01T12:48:25.670Z,99758.05
2019-03-01T12:53:29.430Z,99750.16
2019-03-01T12:58:33.191Z,99744.65
2019-03-01T13:03:36.931Z,99755.64
2019-03-01T13:08:40.690Z,99752.47
2019-03-01T13:13:44.473Z,99752.96
2019-03-01T13:18:51.308Z,99758.83
2019-03-01T13:23:55.739Z,99760.31
2019-03-01T13:28:59.506Z,99760.31
2019-03-01T13:34:03.341Z,99770.93
2019-03-01T13:39:10.451Z,99782.41
2019-03-01T13:44:13.506Z,99784.91
2019-03-01T13:49:17.282Z,99787.33
2019-03-01T13:54:21.495Z,99802.20
2019-03-01T13:59:25.322Z,99803.98
2019-03-01T14:04:29.171Z,99808.23
2019-03-01T14:09:34.419Z,99805.84
2019-03-01T14:14:38.322Z,99815.56
2019-03-01T14:19:43.068Z,99822.41
2019-03-01T14:24:46.921Z,99824.23
2019-03-01T14:29:53.597Z,99827.53
2019-03-01T14:34:56.210Z,99827.53
2019-03-01T14:39:59.976Z,99832.41
2019-03-01T14:45:06.615Z,99847.41
2019-03-01T14:50:11.289Z,99849.22
2019-03-01T14:55:19.711Z,99856.00
2019-03-01T15:00:53.685Z,99851.17
2019-03-01T15:05:57.710Z,99857.61
2019-03-01T15:11:07.972Z,99852.16
2019-03-01T15:16:12.994Z,99871.16
2019-03-01T15:21:17.042Z,99874.46
2019-03-01T15:26:23.108Z,99874.46
2019-03-01T15:31:26.312Z,99878.98
2019-03-01T15:36:30.169Z,99878.44
2019-03-01T15:41:35.128Z,99880.27
2019-03-01T15:46:38.905Z,99880.27
2019-03-01T15:51:45.242Z,99901.01
2019-03-01T15:56:49.042Z,99892.13
2019-03-01T16:01:52.914Z,99922.47
2019-03-01T16:06:56.814Z,99928.06
2019-03-01T16:12:00.595Z,99945.36
2019-03-01T16:17:04.568Z,99952.56
2019-03-01T16:22:08.420Z,99959.41
2019-03-01T16:27:15.167Z,99963.07
2019-03-01T16:32:17.781Z,99963.07
2019-03-01T16:37:22.686Z,99983.32
2019-03-01T16:42:27.124Z,99983.32
2019-03-01T16:47:30.917Z,99990.25
2019-03-01T16:52:34.699Z,100013.52
2019-03-01T16:57:38.541Z,100018.30
2019-03-01T17:02:43.177Z,100018.30
2019-03-01T17:07:47.010Z,100030.23
2019-03-01T17:12:52.025Z,100039.30
2019-03-01T17:17:56.311Z,100060.73
2019-03-01T17:23:03.117Z,100068.63
2019-03-01T17:28:05.752Z,100073.41
2019-03-01T17:33:12.513Z,100083.35
2019-03-01T17:38:15.150Z,100083.35
2019-03-01T17:43:19.402Z,100089.20
2019-03-01T17:48:23.179Z,100099.52
2019-03-01T17:53:26.952Z,100107.30
2019-03-01T17:58:30.769Z,100116.22
2019-03-01T18:03:34.527Z,100128.73
2019-03-01T18:08:39.699Z,100126.90
2019-03-01T18:13:43.930Z,100126.90
2019-03-01T18:18:49.413Z,100131.41
2019-03-01T18:23:53.290Z,100151.63
2019-03-01T18:28:57.037Z,100150.64
2019-03-01T18:34:00.865Z,100154.92
2019-03-01T18:39:10.221Z,100165.23
2019-03-01T18:44:14.075Z,100182.01
2019-03-01T18:49:19.751Z,100193.13
2019-03-01T18:54:23.439Z,100193.63
2019-03-01T18:59:27.180Z,100200.84
2019-03-01T19:04:30.991Z,100205.38
2019-03-01T19:09:36.261Z,100212.33
2019-03-01T19:14:40.260Z,100212.33
2019-03-01T19:19:44.294Z,100212.03
2019-03-01T19:24:50.074Z,100219.31
2019-03-01T19:29:53.586Z,100230.21
2019-03-01T19:34:58.990Z,100234.27
2019-03-01T19:40:03.006Z,100239.29
2019-03-01T19:45:07.485Z,100249.34
2019-03-01T19:50:13.284Z,100258.53
2019-03-01T19:55:17.133Z,100268.79
2019-03-01T20:00:22.231Z,100268.79
2019-03-01T20:05:27.904Z,100288.20
2019-03-01T20:10:32.143Z,100291.04
2019-03-01T20:15:35.978Z,100304.87
2019-03-01T20:20:39.936Z,100304.87
2019-03-01T20:25:43.710Z,100322.52
2019-03-01T20:30:47.479Z,100336.86
2019-03-01T20:35:51.259Z,100349.94
2019-03-01T20:40:55.019Z,100341.75
2019-03-01T20:45:58.787Z,100348.00
2019-03-01T20:51:02.590Z,100356.19
2019-03-01T20:56:06.447Z,100358.78
2019-03-01T21:01:10.275Z,100362.56
2019-03-01T21:06:14.076Z,100355.72
2019-03-01T21:11:17.870Z,100363.08
2019-03-01T21:16:21.633Z,100370.88
2019-03-01T21:21:25.580Z,100373.80
2019-03-01T21:26:30.891Z,100374.30
2019-03-01T21:31:35.406Z,100374.30
2019-03-01T21:36:40.306Z,100373.69
2019-03-01T21:41:44.753Z,100374.16
2019-03-01T21:46:49.386Z,100380.02
2019-03-01T21:51:55.214Z,100377.81
2019-03-01T21:56:58.634Z,100383.17
2019-03-01T22:02:02.426Z,100375.11
2019-03-01T22:07:06.329Z,100375.11
2019-03-01T22:12:10.105Z,100367.05
2019-03-01T22:17:14.442Z,100376.47
2019-03-01T22:22:18.332Z,100376.47
2019-03-01T22:27:25.324Z,100380.25
2019-03-01T22:32:29.051Z,100380.25
2019-03-01T22:37:32.881Z,100388.28
2019-03-01T22:42:36.651Z,100399.64
2019-03-01T22:47:40.417Z,100399.87
2019-03-01T22:52:44.305Z,100402.94
2019-03-01T22:57:48.093Z,100407.34
2019-03-01T23:02:51.851Z,100407.34
2019-03-01T23:07:56.805Z,100399.28
2019-03-01T23:13:01.179Z,100403.31
2019-03-01T23:18:05.691Z,100393.05
2019-03-01T23:23:10.370Z,100396.48
2019-03-01T23:28:14.264Z,100391.84
2019-03-01T23:33:18.009Z,100398.55
2019-03-01T23:38:21.797Z,100394.25
2019-03-01T23:43:27.543Z,100394.02
2019-03-01T23:48:31.140Z,100393.05
2019-03-01T23:53:34.941Z,100399.75
2019-03-01T23:58:38.761Z,100401.36
